createdAt,value
2023-03-19T00:01:13.642Z,15.53
2023-03-19T00:03:44.937Z,15.40
2023-03-19T00:06:17.929Z,14.23
2023-03-19T00:08:56.263Z,16.00
2023-03-19T00:11:29.109Z,14.40
2023-03-19T00:14:06.339Z,14.70
2023-03-19T00:16:40.364Z,14.97
2023-03-19T00:19:12.821Z,14.40
2023-03-19T00:21:48.068Z,15.60
2023-03-19T00:24:24.444Z,13.33
2023-03-19T00:29:56.949Z,14.33
2023-03-19T00:32:28.703Z,14.87
2023-03-19T00:34:58.907Z,12.87
2023-03-19T00:37:29.139Z,14.43
2023-03-19T00:39:59.021Z,15.27
2023-03-19T00:42:30.090Z,13.17
2023-03-19T00:45:03.287Z,13.03
2023-03-19T00:47:37.101Z,13.33
2023-03-19T00:50:07.466Z,13.07
2023-03-19T00:52:36.510Z,13.00
2023-03-19T00:55:05.907Z,12.70
2023-03-19T00:57:34.948Z,13.17
2023-03-19T01:00:04.333Z,14.97
2023-03-19T01:02:33.441Z,12.38
2023-03-19T01:05:04.116Z,13.70
2023-03-19T01:07:33.889Z,13.17
2023-03-19T01:10:02.872Z,13.20
2023-03-19T01:12:32.144Z,13.20
2023-03-19T01:15:01.394Z,13.50
2023-03-19T01:17:30.502Z,14.35
2023-03-19T01:19:59.557Z,12.60
2023-03-19T01:22:30.038Z,11.80
2023-03-19T01:25:03.061Z,11.60
2023-03-19T01:27:32.053Z,11.88
2023-03-19T01:30:01.431Z,12.17
2023-03-19T01:32:53.440Z,12.70
2023-03-19T01:35:37.175Z,13.48
2023-03-19T01:38:08.064Z,12.97
2023-03-19T01:40:37.858Z,14.27
2023-03-19T01:43:18.923Z,13.48
2023-03-19T01:45:53.876Z,14.37
2023-03-19T01:48:44.526Z,12.90
2023-03-19T01:51:19.851Z,12.98
2023-03-19T01:54:02.452Z,13.55
2023-03-19T01:56:47.970Z,14.40
2023-03-19T01:59:32.642Z,14.80
2023-03-19T02:02:28.106Z,13.93
2023-03-19T02:05:02.304Z,13.50
2023-03-19T02:07:35.876Z,15.23
2023-03-19T02:10:08.420Z,14.50
2023-03-19T02:12:38.271Z,14.52
2023-03-19T02:15:08.442Z,15.98
2023-03-19T02:17:37.665Z,15.13
2023-03-19T02:20:16.179Z,15.18
2023-03-19T02:22:53.531Z,15.27
2023-03-19T02:25:32.139Z,16.63
2023-03-19T02:28:03.935Z,14.88
2023-03-19T02:30:35.645Z,13.67
2023-03-19T02:33:11.378Z,13.63
2023-03-19T02:35:41.692Z,14.85
2023-03-19T02:38:12.797Z,15.57
2023-03-19T02:40:48.701Z,15.68
2023-03-19T02:43:19.317Z,13.03
2023-03-19T02:45:48.780Z,13.15
2023-03-19T02:48:17.853Z,14.45
2023-03-19T02:50:47.045Z,14.60
2023-03-19T02:53:17.011Z,14.57
2023-03-19T02:55:46.186Z,13.98
2023-03-19T02:58:15.509Z,14.73
2023-03-19T03:00:46.457Z,14.05
2023-03-19T03:03:16.132Z,13.80
2023-03-19T03:05:45.236Z,14.90
2023-03-19T03:08:14.716Z,15.35
2023-03-19T03:10:43.764Z,14.73
2023-03-19T03:13:15.080Z,12.68
2023-03-19T03:15:45.592Z,14.00
2023-03-19T03:18:15.036Z,13.93
2023-03-19T03:20:45.255Z,14.45
2023-03-19T03:23:14.847Z,12.82
2023-03-19T03:25:45.332Z,13.85
2023-03-19T03:28:14.391Z,13.90
2023-03-19T03:30:44.842Z,15.50
2023-03-19T03:33:14.269Z,13.55
2023-03-19T03:35:43.335Z,14.55
2023-03-19T03:38:12.910Z,13.85
2023-03-19T03:40:42.076Z,12.75
2023-03-19T03:43:11.385Z,13.32
2023-03-19T03:45:40.441Z,13.02
2023-03-19T03:48:11.155Z,13.80
2023-03-19T03:50:40.321Z,13.60
2023-03-19T03:53:13.306Z,12.98
2023-03-19T03:55:42.875Z,14.05
2023-03-19T03:58:13.233Z,14.32
2023-03-19T04:00:42.578Z,14.55
2023-03-19T04:03:13.043Z,14.43
2023-03-19T04:05:42.350Z,15.65
2023-03-19T04:08:12.272Z,14.50
2023-03-19T04:10:43.874Z,14.00
2023-03-19T04:13:14.126Z,15.50
2023-03-19T04:15:44.604Z,14.80
2023-03-19T04:18:16.992Z,15.27
2023-03-19T04:20:46.563Z,15.60
2023-03-19T04:23:15.633Z,13.75
2023-03-19T04:25:44.648Z,14.45
2023-03-19T04:28:13.715Z,14.27
2023-03-19T04:30:44.925Z,15.25
2023-03-19T04:33:15.604Z,13.63
2023-03-19T04:35:44.739Z,14.68
2023-03-19T04:38:13.936Z,16.20
2023-03-19T04:40:43.594Z,15.35
2023-03-19T04:43:12.995Z,15.60
2023-03-19T04:45:42.723Z,14.60
2023-03-19T04:48:11.990Z,15.97
2023-03-19T04:50:44.034Z,15.07
2023-03-19T04:53:13.373Z,15.10
2023-03-19T04:55:42.830Z,16.50
2023-03-19T04:58:18.172Z,13.55
2023-03-19T05:00:52.135Z,13.52
2023-03-19T05:03:26.361Z,15.10
2023-03-19T05:05:56.956Z,14.07
2023-03-19T05:08:26.749Z,14.90
2023-03-19T05:10:55.832Z,14.93
2023-03-19T05:13:24.884Z,12.73
2023-03-19T05:15:56.850Z,14.73
2023-03-19T05:18:27.519Z,15.45
2023-03-19T05:20:58.660Z,14.60
2023-03-19T05:24:25.130Z,15.63
2023-03-19T05:26:56.330Z,15.00
2023-03-19T05:29:31.391Z,15.50
2023-03-19T05:32:26.531Z,16.85
2023-03-19T05:34:56.019Z,16.00
2023-03-19T05:37:27.144Z,17.08
2023-03-19T05:39:58.974Z,15.88
2023-03-19T05:42:28.053Z,16.90
2023-03-19T05:44:59.426Z,16.63
2023-03-19T05:47:30.805Z,18.00
2023-03-19T05:50:00.606Z,18.35
2023-03-19T05:52:31.716Z,17.45
2023-03-19T05:55:02.250Z,18.08
2023-03-19T05:57:40.056Z,17.40
2023-03-19T06:00:13.139Z,16.63
2023-03-19T06:02:43.211Z,17.75
2023-03-19T06:05:35.418Z,16.33
2023-03-19T06:08:14.432Z,15.32
2023-03-19T06:11:07.011Z,15.27
2023-03-19T06:13:37.081Z,19.08
2023-03-19T06:16:10.631Z,15.63
2023-03-19T06:18:43.393Z,16.13
2023-03-19T06:21:14.605Z,14.43
2023-03-19T06:23:45.044Z,14.93
2023-03-19T06:26:17.662Z,15.75
2023-03-19T06:28:54.464Z,14.18
2023-03-19T06:31:24.124Z,14.40
2023-03-19T06:33:56.492Z,13.73
2023-03-19T06:36:30.650Z,13.55
2023-03-19T06:39:01.370Z,13.60
2023-03-19T06:42:24.875Z,14.07
2023-03-19T06:44:54.239Z,14.65
2023-03-19T06:47:23.371Z,15.10
2023-03-19T06:49:52.323Z,14.40
2023-03-19T06:52:21.588Z,13.70
2023-03-19T06:54:54.337Z,12.53
2023-03-19T06:57:23.405Z,14.48
2023-03-19T06:59:52.845Z,13.63
2023-03-19T07:02:22.365Z,15.50
2023-03-19T07:04:52.433Z,13.63
2023-03-19T07:07:21.624Z,13.00
2023-03-19T07:09:52.264Z,13.07
2023-03-19T07:12:21.688Z,11.93
2023-03-19T07:14:51.182Z,13.60
2023-03-19T07:17:20.130Z,13.60
2023-03-19T07:19:49.127Z,19.33
2023-03-19T07:22:18.914Z,22.43
2023-03-19T07:24:52.650Z,16.00
2023-03-19T07:27:22.119Z,14.65
2023-03-19T07:29:51.319Z,16.00
2023-03-19T07:32:20.272Z,16.52
2023-03-19T07:34:49.499Z,17.67
2023-03-19T07:37:20.170Z,18.13
2023-03-19T07:39:52.344Z,19.42
2023-03-19T07:42:21.458Z,18.20
2023-03-19T07:44:50.677Z,19.17
2023-03-19T07:47:28.479Z,29.05
2023-03-19T07:49:58.746Z,21.05
2023-03-19T07:52:27.917Z,17.33
2023-03-19T07:54:58.421Z,17.90
2023-03-19T07:57:27.520Z,16.90
2023-03-19T07:59:56.575Z,14.02
2023-03-19T08:02:25.903Z,14.50
2023-03-19T08:04:55.954Z,14.20
2023-03-19T08:07:25.994Z,15.38
2023-03-19T08:09:55.041Z,14.50
2023-03-19T08:12:25.549Z,17.43
2023-03-19T08:14:54.802Z,15.80
2023-03-19T08:17:23.793Z,17.20
2023-03-19T08:19:52.845Z,16.67
2023-03-19T08:22:21.817Z,15.67
2023-03-19T08:24:50.902Z,15.97
2023-03-19T08:27:19.898Z,17.43
2023-03-19T08:29:50.340Z,18.60
2023-03-19T08:32:19.281Z,18.47
2023-03-19T08:34:49.692Z,19.37
2023-03-19T08:37:18.988Z,19.23
2023-03-19T08:40:13.863Z,19.40
2023-03-19T08:42:45.059Z,20.05
2023-03-19T08:45:17.473Z,18.42
2023-03-19T08:47:47.008Z,18.67
2023-03-19T08:50:16.886Z,18.00
2023-03-19T08:52:46.764Z,19.48
2023-03-19T08:55:16.072Z,18.75
2023-03-19T08:57:45.146Z,18.63
2023-03-19T09:00:17.233Z,19.10
2023-03-19T09:02:46.333Z,18.00
2023-03-19T09:05:15.367Z,18.17
2023-03-19T09:07:44.419Z,20.50
2023-03-19T09:10:13.549Z,17.73
2023-03-19T09:12:42.573Z,18.27
2023-03-19T09:15:15.564Z,18.17
2023-03-19T09:17:46.247Z,15.30
2023-03-19T09:20:15.827Z,17.27
2023-03-19T09:22:45.046Z,17.80
2023-03-19T09:25:14.063Z,17.52
2023-03-19T09:27:47.420Z,17.83
2023-03-19T09:30:16.754Z,17.85
2023-03-19T09:32:47.397Z,16.85
2023-03-19T09:35:16.644Z,16.45
2023-03-19T09:37:45.738Z,18.37
2023-03-19T09:40:23.340Z,16.80
2023-03-19T09:43:07.844Z,17.42
2023-03-19T09:45:36.903Z,15.70
2023-03-19T09:48:13.627Z,17.35
2023-03-19T09:50:42.706Z,16.42
2023-03-19T09:53:19.325Z,16.30
2023-03-19T09:55:52.504Z,15.15
2023-03-19T09:58:23.771Z,17.10
2023-03-19T10:00:54.601Z,17.60
2023-03-19T10:03:44.506Z,17.67
2023-03-19T10:06:29.417Z,15.83
2023-03-19T10:09:16.889Z,13.90
2023-03-19T10:12:00.246Z,17.00
2023-03-19T10:14:52.976Z,15.57
2023-03-19T10:17:34.729Z,13.10
2023-03-19T10:20:09.928Z,13.57
2023-03-19T10:22:47.685Z,13.10
2023-03-19T10:25:23.600Z,13.73
2023-03-19T10:27:57.928Z,13.73
2023-03-19T10:30:27.312Z,13.37
2023-03-19T10:33:09.349Z,12.23
2023-03-19T10:35:45.193Z,13.13
2023-03-19T10:38:26.119Z,13.50
2023-03-19T10:41:12.413Z,13.07
2023-03-19T10:43:42.509Z,11.57
2023-03-19T10:46:15.944Z,13.37
2023-03-19T10:48:47.092Z,11.30
2023-03-19T10:51:22.468Z,11.97
2023-03-19T10:53:53.481Z,11.63
2023-03-19T10:56:24.455Z,11.77
2023-03-19T10:59:02.144Z,14.10
2023-03-19T11:01:35.781Z,14.47
2023-03-19T11:04:14.989Z,13.50
2023-03-19T11:06:51.301Z,11.93
2023-03-19T11:09:29.658Z,12.87
2023-03-19T11:12:07.087Z,12.77
2023-03-19T11:14:39.598Z,14.03
2023-03-19T11:17:18.650Z,13.20
2023-03-19T11:19:53.463Z,13.90
2023-03-19T11:22:29.000Z,13.30
2023-03-19T11:25:01.464Z,13.00
2023-03-19T11:27:32.462Z,12.50
2023-03-19T11:30:01.936Z,12.20
2023-03-19T11:33:00.857Z,12.23
2023-03-19T11:35:34.743Z,11.27
2023-03-19T11:38:14.086Z,9.80
2023-03-19T11:40:48.348Z,11.60
2023-03-19T11:43:45.710Z,9.20
2023-03-19T11:46:28.222Z,11.90
2023-03-19T11:49:27.349Z,9.87
2023-03-19T11:52:05.664Z,9.80
2023-03-19T11:54:46.658Z,10.67
2023-03-19T11:57:24.286Z,10.43
2023-03-19T12:00:11.048Z,9.20
2023-03-19T12:03:25.415Z,10.57
2023-03-19T12:06:00.310Z,10.43
2023-03-19T12:08:40.336Z,10.83
2023-03-19T12:11:19.718Z,9.30
2023-03-19T12:14:03.431Z,7.83
2023-03-19T12:16:46.539Z,8.40
2023-03-19T12:19:43.313Z,8.60
2023-03-19T12:22:25.755Z,9.10
2023-03-19T12:25:09.936Z,10.00
2023-03-19T12:27:45.076Z,11.07
2023-03-19T12:30:26.373Z,9.23
2023-03-19T12:33:09.711Z,10.20
2023-03-19T12:35:42.153Z,9.77
2023-03-19T12:38:16.582Z,8.83
2023-03-19T12:40:50.478Z,9.53
2023-03-19T12:43:26.998Z,9.00
2023-03-19T12:46:02.042Z,8.27
2023-03-19T12:48:37.134Z,9.37
2023-03-19T12:51:11.805Z,10.10
2023-03-19T12:53:50.215Z,9.30
2023-03-19T12:56:26.508Z,10.40
2023-03-19T12:59:03.425Z,9.90
2023-03-19T13:01:37.681Z,10.50
2023-03-19T13:04:13.628Z,9.60
2023-03-19T13:06:49.177Z,9.90
2023-03-19T13:09:27.091Z,10.10
2023-03-19T13:12:02.054Z,8.50
2023-03-19T13:14:39.892Z,9.23
2023-03-19T13:17:30.945Z,9.90
2023-03-19T13:20:09.643Z,9.03
2023-03-19T13:22:41.984Z,10.23
2023-03-19T13:25:26.182Z,9.37
2023-03-19T13:28:00.449Z,9.77
2023-03-19T13:30:35.132Z,9.00
2023-03-19T13:33:11.161Z,8.27
2023-03-19T13:35:52.094Z,8.63
2023-03-19T13:38:28.458Z,9.73
2023-03-19T13:41:06.985Z,10.57
2023-03-19T13:43:54.849Z,10.57
2023-03-19T13:46:40.002Z,9.10
2023-03-19T13:49:32.128Z,9.67
2023-03-19T13:52:04.574Z,9.80
2023-03-19T13:54:40.254Z,9.07
2023-03-19T13:57:36.174Z,11.57
2023-03-19T14:00:43.000Z,10.40
2023-03-19T14:03:22.607Z,10.70
2023-03-19T14:05:54.462Z,8.60
2023-03-19T14:08:26.308Z,10.47
2023-03-19T14:10:59.874Z,10.43
2023-03-19T14:13:34.599Z,10.07
2023-03-19T14:16:11.875Z,13.40
2023-03-19T14:18:45.454Z,10.33
2023-03-19T14:21:21.990Z,10.70
2023-03-19T14:23:57.786Z,9.70
2023-03-19T14:26:29.509Z,10.10
2023-03-19T14:29:02.731Z,10.40
2023-03-19T14:31:42.607Z,9.23
2023-03-19T14:34:22.170Z,10.10
2023-03-19T14:36:58.448Z,9.77
2023-03-19T14:39:29.432Z,9.07
2023-03-19T14:42:04.764Z,10.60
2023-03-19T14:45:07.302Z,9.10
2023-03-19T14:48:22.001Z,8.93
2023-03-19T14:51:26.343Z,10.60
2023-03-19T14:53:59.900Z,23.97
2023-03-19T14:56:33.815Z,10.77
2023-03-19T14:59:06.205Z,11.50
2023-03-19T15:01:42.100Z,10.13
2023-03-19T15:04:14.379Z,10.00
2023-03-19T15:06:49.380Z,10.97
2023-03-19T15:09:22.505Z,8.27
2023-03-19T15:12:26.196Z,7.90
2023-03-19T15:15:18.424Z,11.27
2023-03-19T15:18:02.975Z,8.53
2023-03-19T15:20:38.198Z,9.33
2023-03-19T15:23:25.692Z,10.80
2023-03-19T15:25:58.067Z,12.73
2023-03-19T15:28:28.817Z,9.77
2023-03-19T15:31:14.462Z,11.23
2023-03-19T15:33:53.254Z,19.33
2023-03-19T15:36:30.291Z,9.67
2023-03-19T15:39:05.015Z,8.73
2023-03-19T15:41:40.376Z,9.10
2023-03-19T15:44:18.233Z,8.20
2023-03-19T15:46:48.493Z,8.63
2023-03-19T15:49:22.219Z,8.77
2023-03-19T15:51:57.373Z,8.50
2023-03-19T15:54:28.810Z,8.50
2023-03-19T15:56:58.749Z,9.20
2023-03-19T15:59:31.870Z,8.67
2023-03-19T16:02:03.513Z,9.13
2023-03-19T16:04:45.674Z,8.90
2023-03-19T16:07:34.191Z,8.37
2023-03-19T16:10:35.734Z,8.60
2023-03-19T16:13:20.000Z,10.13
2023-03-19T16:15:55.736Z,9.00
2023-03-19T16:18:31.863Z,10.63
2023-03-19T16:21:08.373Z,9.40
2023-03-19T16:23:39.368Z,9.43
2023-03-19T16:26:18.561Z,10.37
2023-03-19T16:28:53.224Z,10.93
2023-03-19T16:31:25.153Z,10.53
2023-03-19T16:33:54.635Z,10.10
2023-03-19T16:36:24.998Z,9.77
2023-03-19T16:39:00.099Z,8.60
2023-03-19T16:41:33.909Z,9.57
2023-03-19T16:44:16.776Z,9.53
2023-03-19T16:46:46.196Z,9.63
2023-03-19T16:49:15.475Z,9.63
2023-03-19T16:51:44.643Z,10.30
2023-03-19T16:54:15.471Z,10.17
2023-03-19T16:56:46.121Z,11.80
2023-03-19T16:59:22.072Z,9.77
2023-03-19T17:01:51.427Z,11.70
2023-03-19T17:04:20.833Z,10.90
2023-03-19T17:06:49.969Z,9.70
2023-03-19T17:09:19.200Z,10.30
2023-03-19T17:11:50.212Z,11.57
2023-03-19T17:14:22.603Z,11.20
2023-03-19T17:16:52.348Z,11.33
2023-03-19T17:19:24.413Z,10.20
2023-03-19T17:21:56.171Z,12.60
2023-03-19T17:24:27.503Z,13.33
2023-03-19T17:26:59.844Z,13.20
2023-03-19T17:29:29.690Z,12.80
2023-03-19T17:32:01.946Z,10.60
2023-03-19T17:34:33.291Z,13.27
2023-03-19T17:37:04.340Z,11.30
2023-03-19T17:39:34.217Z,12.73
2023-03-19T17:42:08.221Z,12.77
2023-03-19T17:44:37.291Z,12.40
2023-03-19T17:47:06.520Z,12.43
2023-03-19T17:49:35.794Z,14.03
2023-03-19T17:52:05.019Z,12.70
2023-03-19T17:54:34.061Z,13.87
2023-03-19T17:57:04.651Z,14.27
2023-03-19T17:59:33.744Z,14.53
2023-03-19T18:02:02.840Z,12.60
2023-03-19T18:04:31.943Z,15.13
2023-03-19T18:07:00.985Z,15.83
2023-03-19T18:09:32.834Z,15.70
2023-03-19T18:12:03.703Z,16.47
2023-03-19T18:14:32.926Z,15.70
2023-03-19T18:17:02.693Z,14.67
2023-03-19T18:19:33.964Z,14.23
2023-03-19T18:22:03.420Z,16.60
2023-03-19T18:24:32.586Z,16.63
2023-03-19T18:27:01.570Z,14.73
2023-03-19T18:29:32.062Z,15.50
2023-03-19T18:32:04.146Z,15.00
2023-03-19T18:34:35.753Z,13.77
2023-03-19T18:37:06.488Z,14.93
2023-03-19T18:39:38.311Z,15.67
2023-03-19T18:42:07.453Z,15.33
2023-03-19T18:44:38.032Z,13.97
2023-03-19T18:47:07.353Z,15.33
2023-03-19T18:49:36.429Z,13.73
2023-03-19T18:52:05.835Z,13.83
2023-03-19T18:54:34.965Z,11.97
2023-03-19T18:57:04.490Z,13.00
2023-03-19T18:59:36.748Z,11.97
2023-03-19T19:02:30.232Z,12.07
2023-03-19T19:04:59.477Z,11.60
2023-03-19T19:07:28.650Z,11.40
2023-03-19T19:09:58.031Z,12.47
2023-03-19T19:12:28.544Z,12.37
2023-03-19T19:14:59.990Z,11.70
2023-03-19T19:17:29.868Z,10.00
2023-03-19T19:19:59.020Z,10.33
2023-03-19T19:22:36.222Z,10.43
2023-03-19T19:25:05.696Z,11.10
2023-03-19T19:27:35.180Z,10.60
2023-03-19T19:30:07.028Z,11.27
2023-03-19T19:32:36.583Z,9.70
2023-03-19T19:35:07.797Z,9.80
2023-03-19T19:37:37.190Z,9.60
2023-03-19T19:40:07.408Z,9.30
2023-03-19T19:42:36.557Z,10.27
2023-03-19T19:45:08.107Z,8.63
2023-03-19T19:47:37.220Z,8.60
2023-03-19T19:50:07.100Z,8.37
2023-03-19T19:52:36.263Z,8.70
2023-03-19T19:55:05.960Z,7.93
2023-03-19T19:57:34.971Z,8.23
2023-03-19T20:00:06.355Z,6.50
2023-03-19T20:02:41.444Z,6.90
2023-03-19T20:05:19.621Z,6.97
2023-03-19T20:07:49.180Z,6.00
2023-03-19T20:10:23.272Z,5.10
2023-03-19T20:12:54.281Z,5.57
2023-03-19T20:15:27.961Z,4.70
2023-03-19T20:17:57.656Z,6.00
2023-03-19T20:20:28.605Z,6.70
2023-03-19T20:22:58.579Z,5.63
2023-03-19T20:25:29.936Z,5.03
2023-03-19T20:28:02.757Z,4.63
2023-03-19T20:30:35.308Z,5.17
2023-03-19T20:33:05.470Z,6.17
2023-03-19T20:35:36.446Z,6.13
2023-03-19T20:38:07.559Z,4.70
2023-03-19T20:40:40.791Z,4.00
2023-03-19T20:43:27.966Z,5.27
2023-03-19T20:46:01.895Z,5.30
2023-03-19T20:48:32.138Z,5.00
2023-03-19T20:51:02.959Z,5.70
2023-03-19T20:53:32.200Z,3.90
2023-03-19T20:56:05.834Z,5.43
2023-03-19T20:58:38.510Z,5.07
2023-03-19T21:01:12.538Z,4.17
2023-03-19T21:03:42.001Z,4.67
2023-03-19T21:06:17.547Z,5.13
2023-03-19T21:08:49.101Z,6.80
2023-03-19T21:11:19.540Z,5.00
2023-03-19T21:13:49.568Z,4.60
2023-03-19T21:16:21.778Z,5.43
2023-03-19T21:18:51.936Z,6.03
2023-03-19T21:21:29.894Z,6.33
2023-03-19T21:24:01.824Z,5.00
2023-03-19T21:26:31.253Z,6.30
2023-03-19T21:29:07.469Z,6.20
2023-03-19T21:31:37.950Z,5.43
2023-03-19T21:34:07.194Z,5.07
2023-03-19T21:36:36.482Z,5.03
2023-03-19T21:39:05.861Z,6.17
2023-03-19T21:41:36.255Z,4.90
2023-03-19T21:44:08.611Z,5.03
2023-03-19T21:46:40.132Z,3.97
2023-03-19T21:49:13.849Z,5.00
2023-03-19T21:51:45.305Z,4.90
2023-03-19T21:54:15.938Z,5.50
2023-03-19T21:56:46.669Z,5.57
2023-03-19T21:59:18.480Z,4.97
2023-03-19T22:01:49.277Z,5.10
2023-03-19T22:04:19.456Z,4.50
2023-03-19T22:07:02.892Z,4.07
2023-03-19T22:09:32.017Z,4.27
2023-03-19T22:12:01.654Z,4.40
2023-03-19T22:14:31.071Z,4.97
2023-03-19T22:17:01.913Z,3.90
2023-03-19T22:19:31.158Z,4.47
2023-03-19T22:22:00.208Z,4.57
2023-03-19T22:24:29.490Z,4.33
2023-03-19T22:27:01.485Z,4.50
2023-03-19T22:29:34.205Z,4.37
2023-03-19T22:32:05.151Z,4.80
2023-03-19T22:34:37.797Z,4.83
2023-03-19T22:37:23.883Z,5.47
2023-03-19T22:39:53.181Z,5.53
2023-03-19T22:42:23.694Z,5.10
2023-03-19T22:44:54.607Z,5.47
2023-03-19T22:48:18.108Z,4.30
2023-03-19T22:50:49.027Z,3.40
2023-03-19T22:53:23.633Z,3.90
2023-03-19T22:55:53.036Z,3.50
2023-03-19T22:58:22.272Z,3.70
2023-03-19T23:00:51.458Z,4.20
2023-03-19T23:03:22.660Z,3.70
2023-03-19T23:05:55.477Z,4.57
2023-03-19T23:08:24.687Z,3.47
2023-03-19T23:10:54.445Z,5.10
2023-03-19T23:13:24.207Z,4.40
2023-03-19T23:15:57.379Z,4.43
2023-03-19T23:18:31.447Z,3.67
2023-03-19T23:21:04.672Z,4.83
2023-03-19T23:23:33.708Z,3.70
2023-03-19T23:26:02.790Z,3.13
2023-03-19T23:28:35.319Z,4.30
2023-03-19T23:31:04.648Z,4.97
2023-03-19T23:33:33.804Z,5.23
2023-03-19T23:36:04.286Z,4.20
2023-03-19T23:38:33.500Z,3.50
2023-03-19T23:41:07.379Z,3.70
2023-03-19T23:43:36.760Z,4.47
2023-03-19T23:46:06.733Z,3.70
2023-03-19T23:48:38.624Z,3.33
2023-03-19T23:51:14.222Z,4.00
2023-03-19T23:53:44.196Z,4.37
2023-03-19T23:56:21.020Z,3.93
2023-03-19T23:58:52.518Z,4.27
